sensor_id;sensor_type;location;lat;lon;timestamp;P1;durP1;ratioP1;P2;durP2;ratioP2
67997;SDS011;54773;53.388;-1.504;2024-02-14T00:00:52;15.68;;;7.28;;
67997;SDS011;54773;53.388;-1.504;2024-02-14T00:03:36;13.90;;;7.13;;
67997;SDS011;54773;53.388;-1.504;2024-02-14T00:06:22;13.88;;;7.25;;
67997;SDS011;54773;53.388;-1.504;2024-02-14T00:09:07;15.93;;;7.57;;
67997;SDS011;54773;53.388;-1.504;2024-02-14T00:11:51;19.40;;;8.20;;
67997;SDS011;54773;53.388;-1.504;2024-02-14T00:14:35;18.13;;;7.70;;
67997;SDS011;54773;53.388;-1.504;2024-02-14T00:17:19;18.43;;;8.07;;
67997;SDS011;54773;53.388;-1.504;2024-02-14T00:20:03;13.63;;;7.77;;
67997;SDS011;54773;53.388;-1.504;2024-02-14T00:22:47;15.88;;;7.25;;
67997;SDS011;54773;53.388;-1.504;2024-02-14T00:25:31;13.65;;;6.82;;
67997;SDS011;54773;53.388;-1.504;2024-02-14T00:28:15;17.52;;;7.88;;
67997;SDS011;54773;53.388;-1.504;2024-02-14T00:30:59;18.45;;;6.90;;
67997;SDS011;54773;53.388;-1.504;2024-02-14T00:33:43;12.98;;;7.10;;
67997;SDS011;54773;53.388;-1.504;2024-02-14T00:36:29;12.20;;;6.60;;
67997;SDS011;54773;53.388;-1.504;2024-02-14T00:39:13;14.73;;;6.78;;
67997;SDS011;54773;53.388;-1.504;2024-02-14T00:41:57;13.60;;;6.13;;
67997;SDS011;54773;53.388;-1.504;2024-02-14T00:44:41;12.27;;;6.47;;
67997;SDS011;54773;53.388;-1.504;2024-02-14T00:47:25;11.07;;;5.63;;
67997;SDS011;54773;53.388;-1.504;2024-02-14T00:50:09;10.20;;;5.80;;
67997;SDS011;54773;53.388;-1.504;2024-02-14T00:52:53;13.63;;;5.63;;
67997;SDS011;54773;53.388;-1.504;2024-02-14T00:55:37;13.25;;;6.70;;
67997;SDS011;54773;53.388;-1.504;2024-02-14T00:58:21;16.48;;;8.05;;
67997;SDS011;54773;53.388;-1.504;2024-02-14T01:01:05;13.68;;;7.10;;
67997;SDS011;54773;53.388;-1.504;2024-02-14T01:03:49;13.35;;;6.90;;
67997;SDS011;54773;53.388;-1.504;2024-02-14T01:06:33;12.20;;;6.30;;
67997;SDS011;54773;53.388;-1.504;2024-02-14T01:09:18;15.43;;;6.65;;
67997;SDS011;54773;53.388;-1.504;2024-02-14T01:12:02;13.85;;;6.60;;
67997;SDS011;54773;53.388;-1.504;2024-02-14T01:14:48;15.13;;;6.85;;
67997;SDS011;54773;53.388;-1.504;2024-02-14T01:17:32;12.75;;;6.60;;
67997;SDS011;54773;53.388;-1.504;2024-02-14T01:20:19;13.30;;;6.32;;
67997;SDS011;54773;53.388;-1.504;2024-02-14T01:23:04;12.55;;;5.57;;
67997;SDS011;54773;53.388;-1.504;2024-02-14T01:25:48;12.35;;;5.45;;
67997;SDS011;54773;53.388;-1.504;2024-02-14T01:28:33;11.40;;;5.63;;
67997;SDS011;54773;53.388;-1.504;2024-02-14T01:31:17;12.75;;;6.05;;
67997;SDS011;54773;53.388;-1.504;2024-02-14T01:34:01;12.73;;;5.90;;
67997;SDS011;54773;53.388;-1.504;2024-02-14T01:36:46;10.70;;;5.47;;
67997;SDS011;54773;53.388;-1.504;2024-02-14T01:39:31;13.38;;;6.55;;
67997;SDS011;54773;53.388;-1.504;2024-02-14T01:42:15;8.75;;;5.18;;
67997;SDS011;54773;53.388;-1.504;2024-02-14T01:44:59;15.43;;;6.03;;
67997;SDS011;54773;53.388;-1.504;2024-02-14T01:47:43;12.40;;;6.43;;
67997;SDS011;54773;53.388;-1.504;2024-02-14T01:50:27;14.30;;;6.97;;
67997;SDS011;54773;53.388;-1.504;2024-02-14T01:53:15;15.05;;;7.43;;
67997;SDS011;54773;53.388;-1.504;2024-02-14T01:55:59;13.05;;;7.10;;
67997;SDS011;54773;53.388;-1.504;2024-02-14T01:58:43;16.53;;;8.40;;
67997;SDS011;54773;53.388;-1.504;2024-02-14T02:01:28;15.75;;;7.78;;
67997;SDS011;54773;53.388;-1.504;2024-02-14T02:04:12;16.70;;;8.05;;
67997;SDS011;54773;53.388;-1.504;2024-02-14T02:06:56;15.63;;;7.20;;
67997;SDS011;54773;53.388;-1.504;2024-02-14T02:09:40;18.10;;;7.93;;
67997;SDS011;54773;53.388;-1.504;2024-02-14T02:12:24;16.07;;;7.70;;
67997;SDS011;54773;53.388;-1.504;2024-02-14T02:15:11;16.98;;;7.05;;
67997;SDS011;54773;53.388;-1.504;2024-02-14T02:17:57;13.80;;;7.38;;
67997;SDS011;54773;53.388;-1.504;2024-02-14T02:20:43;16.65;;;8.13;;
67997;SDS011;54773;53.388;-1.504;2024-02-14T02:23:27;17.73;;;8.67;;
67997;SDS011;54773;53.388;-1.504;2024-02-14T02:26:11;15.27;;;7.53;;
67997;SDS011;54773;53.388;-1.504;2024-02-14T02:28:55;12.48;;;6.93;;
67997;SDS011;54773;53.388;-1.504;2024-02-14T02:31:39;14.50;;;6.78;;
67997;SDS011;54773;53.388;-1.504;2024-02-14T02:34:23;12.27;;;6.13;;
67997;SDS011;54773;53.388;-1.504;2024-02-14T02:37:07;12.52;;;6.80;;
67997;SDS011;54773;53.388;-1.504;2024-02-14T02:39:53;11.00;;;6.07;;
67997;SDS011;54773;53.388;-1.504;2024-02-14T02:42:37;11.38;;;6.20;;
67997;SDS011;54773;53.388;-1.504;2024-02-14T02:45:21;10.90;;;5.35;;
67997;SDS011;54773;53.388;-1.504;2024-02-14T02:48:05;10.27;;;4.78;;
67997;SDS011;54773;53.388;-1.504;2024-02-14T02:50:50;12.80;;;5.15;;
67997;SDS011;54773;53.388;-1.504;2024-02-14T02:53:35;9.90;;;5.07;;
67997;SDS011;54773;53.388;-1.504;2024-02-14T02:56:20;10.95;;;5.13;;
67997;SDS011;54773;53.388;-1.504;2024-02-14T02:59:06;15.32;;;5.75;;
67997;SDS011;54773;53.388;-1.504;2024-02-14T03:01:50;12.10;;;5.10;;
67997;SDS011;54773;53.388;-1.504;2024-02-14T03:04:34;12.05;;;5.25;;
67997;SDS011;54773;53.388;-1.504;2024-02-14T03:07:19;8.63;;;4.60;;
67997;SDS011;54773;53.388;-1.504;2024-02-14T03:10:04;10.32;;;4.28;;
67997;SDS011;54773;53.388;-1.504;2024-02-14T03:12:48;8.50;;;4.55;;
67997;SDS011;54773;53.388;-1.504;2024-02-14T03:15:32;8.98;;;4.18;;
67997;SDS011;54773;53.388;-1.504;2024-02-14T03:18:17;10.10;;;4.18;;
67997;SDS011;54773;53.388;-1.504;2024-02-14T03:21:01;7.70;;;3.47;;
67997;SDS011;54773;53.388;-1.504;2024-02-14T03:23:45;7.72;;;3.22;;
67997;SDS011;54773;53.388;-1.504;2024-02-14T03:26:29;7.85;;;3.85;;
67997;SDS011;54773;53.388;-1.504;2024-02-14T03:29:16;6.40;;;3.47;;
67997;SDS011;54773;53.388;-1.504;2024-02-14T03:32:03;8.27;;;3.90;;
67997;SDS011;54773;53.388;-1.504;2024-02-14T03:34:47;7.32;;;3.10;;
67997;SDS011;54773;53.388;-1.504;2024-02-14T03:37:31;9.83;;;3.93;;
67997;SDS011;54773;53.388;-1.504;2024-02-14T03:40:15;7.90;;;3.70;;
67997;SDS011;54773;53.388;-1.504;2024-02-14T03:43:00;7.20;;;3.17;;
67997;SDS011;54773;53.388;-1.504;2024-02-14T03:45:44;8.80;;;3.43;;
67997;SDS011;54773;53.388;-1.504;2024-02-14T03:48:28;10.33;;;4.00;;
67997;SDS011;54773;53.388;-1.504;2024-02-14T03:51:11;9.03;;;3.67;;
67997;SDS011;54773;53.388;-1.504;2024-02-14T03:53:56;9.77;;;3.10;;
67997;SDS011;54773;53.388;-1.504;2024-02-14T03:56:40;6.07;;;2.78;;
67997;SDS011;54773;53.388;-1.504;2024-02-14T03:59:24;6.47;;;2.60;;
67997;SDS011;54773;53.388;-1.504;2024-02-14T04:02:08;6.93;;;2.70;;
67997;SDS011;54773;53.388;-1.504;2024-02-14T04:04:53;6.88;;;2.30;;
67997;SDS011;54773;53.388;-1.504;2024-02-14T04:07:37;5.50;;;2.30;;
67997;SDS011;54773;53.388;-1.504;2024-02-14T04:10:21;4.60;;;1.60;;
67997;SDS011;54773;53.388;-1.504;2024-02-14T04:13:05;5.70;;;1.60;;
67997;SDS011;54773;53.388;-1.504;2024-02-14T04:15:50;3.75;;;1.42;;
67997;SDS011;54773;53.388;-1.504;2024-02-14T04:18:34;2.30;;;1.05;;
67997;SDS011;54773;53.388;-1.504;2024-02-14T04:21:18;2.78;;;1.10;;
67997;SDS011;54773;53.388;-1.504;2024-02-14T04:24:02;4.07;;;1.20;;
67997;SDS011;54773;53.388;-1.504;2024-02-14T04:26:46;4.05;;;1.05;;
67997;SDS011;54773;53.388;-1.504;2024-02-14T04:29:32;3.20;;;1.27;;
67997;SDS011;54773;53.388;-1.504;2024-02-14T04:32:16;4.78;;;1.60;;
67997;SDS011;54773;53.388;-1.504;2024-02-14T04:35:00;4.23;;;1.70;;
67997;SDS011;54773;53.388;-1.504;2024-02-14T04:37:45;3.42;;;1.38;;
67997;SDS011;54773;53.388;-1.504;2024-02-14T04:40:30;3.70;;;1.42;;
67997;SDS011;54773;53.388;-1.504;2024-02-14T04:43:13;3.35;;;1.58;;
67997;SDS011;54773;53.388;-1.504;2024-02-14T04:45:57;5.32;;;1.60;;
67997;SDS011;54773;53.388;-1.504;2024-02-14T04:48:41;3.20;;;1.30;;
67997;SDS011;54773;53.388;-1.504;2024-02-14T04:51:26;2.45;;;1.05;;
67997;SDS011;54773;53.388;-1.504;2024-02-14T04:54:10;4.93;;;0.98;;
67997;SDS011;54773;53.388;-1.504;2024-02-14T04:56:54;3.67;;;1.00;;
67997;SDS011;54773;53.388;-1.504;2024-02-14T04:59:38;2.05;;;0.82;;
67997;SDS011;54773;53.388;-1.504;2024-02-14T05:02:22;2.50;;;0.90;;
67997;SDS011;54773;53.388;-1.504;2024-02-14T05:05:06;2.67;;;0.80;;
67997;SDS011;54773;53.388;-1.504;2024-02-14T05:07:52;2.40;;;0.80;;
67997;SDS011;54773;53.388;-1.504;2024-02-14T05:10:36;2.53;;;0.70;;
67997;SDS011;54773;53.388;-1.504;2024-02-14T05:13:21;4.85;;;1.15;;
67997;SDS011;54773;53.388;-1.504;2024-02-14T05:16:05;3.28;;;0.90;;
67997;SDS011;54773;53.388;-1.504;2024-02-14T05:18:51;2.17;;;0.80;;
67997;SDS011;54773;53.388;-1.504;2024-02-14T05:21:35;2.10;;;0.82;;
67997;SDS011;54773;53.388;-1.504;2024-02-14T05:24:19;2.80;;;1.00;;
67997;SDS011;54773;53.388;-1.504;2024-02-14T05:27:04;6.30;;;1.30;;
67997;SDS011;54773;53.388;-1.504;2024-02-14T05:29:49;4.90;;;1.30;;
67997;SDS011;54773;53.388;-1.504;2024-02-14T05:32:33;2.35;;;0.80;;
67997;SDS011;54773;53.388;-1.504;2024-02-14T05:35:17;1.45;;;0.60;;
67997;SDS011;54773;53.388;-1.504;2024-02-14T05:38:01;3.28;;;0.90;;
67997;SDS011;54773;53.388;-1.504;2024-02-14T05:40:48;2.25;;;0.95;;
67997;SDS011;54773;53.388;-1.504;2024-02-14T05:43:33;8.05;;;1.30;;
67997;SDS011;54773;53.388;-1.504;2024-02-14T05:46:18;75.20;;;6.28;;
67997;SDS011;54773;53.388;-1.504;2024-02-14T05:49:04;3.17;;;0.80;;
67997;SDS011;54773;53.388;-1.504;2024-02-14T05:51:48;3.03;;;1.02;;
67997;SDS011;54773;53.388;-1.504;2024-02-14T05:54:34;4.82;;;1.10;;
67997;SDS011;54773;53.388;-1.504;2024-02-14T05:57:18;55.47;;;4.40;;
67997;SDS011;54773;53.388;-1.504;2024-02-14T06:00:02;18.47;;;3.90;;
67997;SDS011;54773;53.388;-1.504;2024-02-14T06:02:47;26.30;;;3.47;;
67997;SDS011;54773;53.388;-1.504;2024-02-14T06:05:31;39.83;;;4.30;;
67997;SDS011;54773;53.388;-1.504;2024-02-14T06:08:15;106.22;;;7.78;;
67997;SDS011;54773;53.388;-1.504;2024-02-14T06:11:00;33.58;;;3.88;;
67997;SDS011;54773;53.388;-1.504;2024-02-14T06:13:44;10.03;;;2.80;;
67997;SDS011;54773;53.388;-1.504;2024-02-14T06:16:28;5.90;;;2.43;;
67997;SDS011;54773;53.388;-1.504;2024-02-14T06:19:12;4.95;;;2.15;;
67997;SDS011;54773;53.388;-1.504;2024-02-14T06:21:56;4.60;;;1.93;;
67997;SDS011;54773;53.388;-1.504;2024-02-14T06:24:39;5.75;;;1.42;;
67997;SDS011;54773;53.388;-1.504;2024-02-14T06:27:23;3.08;;;1.30;;
67997;SDS011;54773;53.388;-1.504;2024-02-14T06:30:08;5.70;;;1.27;;
67997;SDS011;54773;53.388;-1.504;2024-02-14T06:32:52;3.67;;;1.10;;
67997;SDS011;54773;53.388;-1.504;2024-02-14T06:35:36;3.43;;;1.50;;
67997;SDS011;54773;53.388;-1.504;2024-02-14T06:38:20;3.25;;;1.30;;
67997;SDS011;54773;53.388;-1.504;2024-02-14T06:41:04;3.38;;;1.20;;
67997;SDS011;54773;53.388;-1.504;2024-02-14T06:43:48;5.53;;;1.95;;
67997;SDS011;54773;53.388;-1.504;2024-02-14T06:46:33;3.53;;;1.65;;
67997;SDS011;54773;53.388;-1.504;2024-02-14T06:49:17;4.97;;;2.63;;
67997;SDS011;54773;53.388;-1.504;2024-02-14T06:52:00;3.25;;;1.50;;
67997;SDS011;54773;53.388;-1.504;2024-02-14T06:54:44;5.00;;;1.70;;
67997;SDS011;54773;53.388;-1.504;2024-02-14T06:57:29;3.85;;;1.70;;
67997;SDS011;54773;53.388;-1.504;2024-02-14T07:00:13;5.60;;;2.20;;
67997;SDS011;54773;53.388;-1.504;2024-02-14T07:02:57;3.20;;;1.38;;
67997;SDS011;54773;53.388;-1.504;2024-02-14T07:05:41;4.40;;;1.57;;
67997;SDS011;54773;53.388;-1.504;2024-02-14T07:08:25;3.42;;;1.83;;
67997;SDS011;54773;53.388;-1.504;2024-02-14T07:11:11;4.38;;;2.00;;
67997;SDS011;54773;53.388;-1.504;2024-02-14T07:13:55;4.47;;;2.13;;
67997;SDS011;54773;53.388;-1.504;2024-02-14T07:16:40;5.03;;;1.92;;
67997;SDS011;54773;53.388;-1.504;2024-02-14T07:19:24;5.03;;;2.10;;
67997;SDS011;54773;53.388;-1.504;2024-02-14T07:22:08;4.73;;;1.90;;
67997;SDS011;54773;53.388;-1.504;2024-02-14T07:24:52;6.05;;;2.55;;
67997;SDS011;54773;53.388;-1.504;2024-02-14T07:27:37;6.35;;;2.83;;
67997;SDS011;54773;53.388;-1.504;2024-02-14T07:30:21;5.05;;;2.28;;
67997;SDS011;54773;53.388;-1.504;2024-02-14T07:33:05;6.07;;;2.50;;
67997;SDS011;54773;53.388;-1.504;2024-02-14T07:35:48;5.53;;;2.30;;
67997;SDS011;54773;53.388;-1.504;2024-02-14T07:38:33;4.80;;;2.25;;
67997;SDS011;54773;53.388;-1.504;2024-02-14T07:41:17;5.73;;;2.40;;
67997;SDS011;54773;53.388;-1.504;2024-02-14T07:44:01;5.10;;;2.00;;
67997;SDS011;54773;53.388;-1.504;2024-02-14T07:46:45;5.88;;;2.58;;
67997;SDS011;54773;53.388;-1.504;2024-02-14T07:49:29;5.72;;;2.42;;
67997;SDS011;54773;53.388;-1.504;2024-02-14T07:52:13;5.95;;;2.67;;
67997;SDS011;54773;53.388;-1.504;2024-02-14T07:54:56;6.88;;;3.40;;
67997;SDS011;54773;53.388;-1.504;2024-02-14T07:57:41;7.60;;;3.72;;
67997;SDS011;54773;53.388;-1.504;2024-02-14T08:00:25;6.53;;;3.67;;
67997;SDS011;54773;53.388;-1.504;2024-02-14T08:03:10;4.88;;;2.80;;
67997;SDS011;54773;53.388;-1.504;2024-02-14T08:05:53;4.60;;;2.70;;
67997;SDS011;54773;53.388;-1.504;2024-02-14T08:08:38;5.75;;;2.95;;
67997;SDS011;54773;53.388;-1.504;2024-02-14T08:11:22;6.78;;;2.88;;
67997;SDS011;54773;53.388;-1.504;2024-02-14T08:14:06;7.28;;;4.38;;
67997;SDS011;54773;53.388;-1.504;2024-02-14T08:16:50;6.47;;;3.80;;
67997;SDS011;54773;53.388;-1.504;2024-02-14T08:19:35;6.20;;;3.92;;
67997;SDS011;54773;53.388;-1.504;2024-02-14T08:22:20;7.57;;;3.70;;
67997;SDS011;54773;53.388;-1.504;2024-02-14T08:25:04;8.45;;;3.95;;
67997;SDS011;54773;53.388;-1.504;2024-02-14T08:27:48;6.93;;;3.65;;
67997;SDS011;54773;53.388;-1.504;2024-02-14T08:30:32;7.83;;;3.70;;
67997;SDS011;54773;53.388;-1.504;2024-02-14T08:33:17;6.88;;;3.90;;
67997;SDS011;54773;53.388;-1.504;2024-02-14T08:36:02;9.38;;;4.53;;
67997;SDS011;54773;53.388;-1.504;2024-02-14T08:38:46;9.07;;;4.00;;
67997;SDS011;54773;53.388;-1.504;2024-02-14T08:41:31;8.32;;;3.88;;
67997;SDS011;54773;53.388;-1.504;2024-02-14T08:44:15;7.13;;;3.57;;
67997;SDS011;54773;53.388;-1.504;2024-02-14T08:46:59;9.50;;;4.07;;
67997;SDS011;54773;53.388;-1.504;2024-02-14T08:49:43;7.53;;;4.28;;
67997;SDS011;54773;53.388;-1.504;2024-02-14T08:52:26;7.10;;;3.87;;
67997;SDS011;54773;53.388;-1.504;2024-02-14T08:55:11;8.55;;;4.47;;
67997;SDS011;54773;53.388;-1.504;2024-02-14T08:58:01;6.80;;;4.10;;
67997;SDS011;54773;53.388;-1.504;2024-02-14T09:00:45;8.48;;;3.88;;
67997;SDS011;54773;53.388;-1.504;2024-02-14T09:03:29;8.85;;;4.50;;
67997;SDS011;54773;53.388;-1.504;2024-02-14T09:06:15;8.40;;;5.40;;
67997;SDS011;54773;53.388;-1.504;2024-02-14T09:09:01;18.25;;;7.28;;
67997;SDS011;54773;53.388;-1.504;2024-02-14T09:11:45;13.27;;;5.53;;
67997;SDS011;54773;53.388;-1.504;2024-02-14T09:14:32;8.57;;;4.25;;
67997;SDS011;54773;53.388;-1.504;2024-02-14T09:17:16;9.00;;;4.30;;
67997;SDS011;54773;53.388;-1.504;2024-02-14T09:20:00;8.70;;;3.97;;
67997;SDS011;54773;53.388;-1.504;2024-02-14T09:22:45;11.20;;;4.68;;
67997;SDS011;54773;53.388;-1.504;2024-02-14T09:25:29;7.50;;;4.22;;
67997;SDS011;54773;53.388;-1.504;2024-02-14T09:28:13;9.00;;;3.38;;
67997;SDS011;54773;53.388;-1.504;2024-02-14T09:30:57;11.23;;;3.80;;
67997;SDS011;54773;53.388;-1.504;2024-02-14T09:33:41;9.27;;;2.90;;
67997;SDS011;54773;53.388;-1.504;2024-02-14T09:36:26;6.50;;;2.63;;
67997;SDS011;54773;53.388;-1.504;2024-02-14T09:39:10;6.68;;;2.83;;
67997;SDS011;54773;53.388;-1.504;2024-02-14T09:41:54;10.00;;;2.60;;
67997;SDS011;54773;53.388;-1.504;2024-02-14T09:44:43;8.13;;;2.70;;
67997;SDS011;54773;53.388;-1.504;2024-02-14T09:47:27;8.68;;;2.88;;
67997;SDS011;54773;53.388;-1.504;2024-02-14T09:50:16;7.40;;;2.28;;
67997;SDS011;54773;53.388;-1.504;2024-02-14T09:53:01;7.43;;;2.83;;
67997;SDS011;54773;53.388;-1.504;2024-02-14T09:55:46;6.63;;;2.20;;
67997;SDS011;54773;53.388;-1.504;2024-02-14T09:58:30;5.93;;;2.45;;
67997;SDS011;54773;53.388;-1.504;2024-02-14T10:01:15;4.97;;;1.92;;
67997;SDS011;54773;53.388;-1.504;2024-02-14T10:03:59;6.55;;;1.92;;
67997;SDS011;54773;53.388;-1.504;2024-02-14T10:06:43;6.60;;;1.63;;
67997;SDS011;54773;53.388;-1.504;2024-02-14T10:09:27;5.28;;;1.73;;
67997;SDS011;54773;53.388;-1.504;2024-02-14T10:12:12;4.70;;;1.35;;
67997;SDS011;54773;53.388;-1.504;2024-02-14T10:14:56;3.30;;;1.20;;
67997;SDS011;54773;53.388;-1.504;2024-02-14T10:17:39;3.80;;;1.40;;
67997;SDS011;54773;53.388;-1.504;2024-02-14T10:20:26;3.05;;;1.25;;
67997;SDS011;54773;53.388;-1.504;2024-02-14T10:23:11;3.97;;;1.40;;
67997;SDS011;54773;53.388;-1.504;2024-02-14T10:25:56;2.72;;;1.00;;
67997;SDS011;54773;53.388;-1.504;2024-02-14T10:28:41;2.92;;;1.08;;
67997;SDS011;54773;53.388;-1.504;2024-02-14T10:31:26;3.70;;;1.08;;
67997;SDS011;54773;53.388;-1.504;2024-02-14T10:34:11;3.08;;;1.10;;
67997;SDS011;54773;53.388;-1.504;2024-02-14T10:36:56;2.30;;;0.93;;
67997;SDS011;54773;53.388;-1.504;2024-02-14T10:39:41;3.15;;;1.17;;
67997;SDS011;54773;53.388;-1.504;2024-02-14T10:42:26;6.60;;;1.25;;
67997;SDS011;54773;53.388;-1.504;2024-02-14T10:45:10;3.40;;;0.90;;
67997;SDS011;54773;53.388;-1.504;2024-02-14T10:47:54;1.80;;;0.77;;
67997;SDS011;54773;53.388;-1.504;2024-02-14T10:50:41;3.53;;;1.10;;
67997;SDS011;54773;53.388;-1.504;2024-02-14T10:53:26;5.40;;;1.17;;
67997;SDS011;54773;53.388;-1.504;2024-02-14T10:56:16;2.10;;;0.90;;
67997;SDS011;54773;53.388;-1.504;2024-02-14T10:59:02;2.55;;;1.05;;
67997;SDS011;54773;53.388;-1.504;2024-02-14T11:01:48;4.00;;;1.48;;
67997;SDS011;54773;53.388;-1.504;2024-02-14T11:04:32;2.83;;;1.23;;
67997;SDS011;54773;53.388;-1.504;2024-02-14T11:07:16;2.65;;;1.13;;
67997;SDS011;54773;53.388;-1.504;2024-02-14T11:10:04;3.00;;;1.20;;
67997;SDS011;54773;53.388;-1.504;2024-02-14T11:12:50;4.97;;;1.58;;
67997;SDS011;54773;53.388;-1.504;2024-02-14T11:15:35;2.15;;;1.20;;
67997;SDS011;54773;53.388;-1.504;2024-02-14T11:18:28;4.50;;;1.52;;
67997;SDS011;54773;53.388;-1.504;2024-02-14T11:21:20;2.97;;;1.48;;
67997;SDS011;54773;53.388;-1.504;2024-02-14T11:24:04;4.22;;;1.90;;
67997;SDS011;54773;53.388;-1.504;2024-02-14T11:26:51;2.70;;;1.17;;
67997;SDS011;54773;53.388;-1.504;2024-02-14T11:29:35;2.40;;;0.90;;
67997;SDS011;54773;53.388;-1.504;2024-02-14T11:32:19;3.35;;;1.20;;
67997;SDS011;54773;53.388;-1.504;2024-02-14T11:35:05;4.10;;;1.27;;
67997;SDS011;54773;53.388;-1.504;2024-02-14T11:37:53;3.08;;;1.10;;
67997;SDS011;54773;53.388;-1.504;2024-02-14T11:40:38;2.28;;;1.02;;
67997;SDS011;54773;53.388;-1.504;2024-02-14T11:43:22;2.80;;;1.25;;
67997;SDS011;54773;53.388;-1.504;2024-02-14T11:46:06;4.78;;;1.40;;
67997;SDS011;54773;53.388;-1.504;2024-02-14T11:48:50;3.80;;;1.40;;
67997;SDS011;54773;53.388;-1.504;2024-02-14T11:51:36;2.65;;;1.02;;
67997;SDS011;54773;53.388;-1.504;2024-02-14T11:54:20;3.95;;;1.25;;
67997;SDS011;54773;53.388;-1.504;2024-02-14T11:57:05;4.57;;;1.50;;
67997;SDS011;54773;53.388;-1.504;2024-02-14T11:59:52;2.25;;;1.00;;
67997;SDS011;54773;53.388;-1.504;2024-02-14T12:02:37;5.15;;;1.38;;
67997;SDS011;54773;53.388;-1.504;2024-02-14T12:05:21;5.00;;;1.50;;
67997;SDS011;54773;53.388;-1.504;2024-02-14T12:08:05;2.63;;;1.17;;
67997;SDS011;54773;53.388;-1.504;2024-02-14T12:10:50;2.75;;;1.10;;
67997;SDS011;54773;53.388;-1.504;2024-02-14T12:13:34;4.68;;;1.75;;
67997;SDS011;54773;53.388;-1.504;2024-02-14T12:16:21;2.90;;;1.23;;
67997;SDS011;54773;53.388;-1.504;2024-02-14T12:19:06;3.67;;;1.20;;
67997;SDS011;54773;53.388;-1.504;2024-02-14T12:21:52;2.90;;;1.25;;
67997;SDS011;54773;53.388;-1.504;2024-02-14T12:24:37;2.80;;;1.35;;
67997;SDS011;54773;53.388;-1.504;2024-02-14T12:27:21;2.25;;;1.10;;
67997;SDS011;54773;53.388;-1.504;2024-02-14T12:30:09;2.95;;;1.33;;
67997;SDS011;54773;53.388;-1.504;2024-02-14T12:32:59;2.88;;;1.20;;
67997;SDS011;54773;53.388;-1.504;2024-02-14T12:35:45;3.22;;;1.10;;
67997;SDS011;54773;53.388;-1.504;2024-02-14T12:38:30;4.75;;;1.17;;
67997;SDS011;54773;53.388;-1.504;2024-02-14T12:41:16;2.60;;;1.35;;
67997;SDS011;54773;53.388;-1.504;2024-02-14T12:44:00;2.50;;;1.02;;
67997;SDS011;54773;53.388;-1.504;2024-02-14T12:46:44;3.33;;;1.10;;
67997;SDS011;54773;53.388;-1.504;2024-02-14T12:49:29;2.97;;;1.00;;
67997;SDS011;54773;53.388;-1.504;2024-02-14T12:52:15;3.63;;;1.13;;
67997;SDS011;54773;53.388;-1.504;2024-02-14T12:54:59;4.28;;;1.25;;
67997;SDS011;54773;53.388;-1.504;2024-02-14T12:57:43;3.97;;;1.30;;
67997;SDS011;54773;53.388;-1.504;2024-02-14T13:00:28;2.83;;;1.20;;
67997;SDS011;54773;53.388;-1.504;2024-02-14T13:03:12;3.85;;;1.35;;
67997;SDS011;54773;53.388;-1.504;2024-02-14T13:05:56;3.60;;;1.23;;
67997;SDS011;54773;53.388;-1.504;2024-02-14T13:08:41;4.88;;;1.38;;
67997;SDS011;54773;53.388;-1.504;2024-02-14T13:11:25;3.42;;;0.90;;
67997;SDS011;54773;53.388;-1.504;2024-02-14T13:14:09;1.90;;;0.80;;
67997;SDS011;54773;53.388;-1.504;2024-02-14T13:16:53;4.60;;;1.15;;
67997;SDS011;54773;53.388;-1.504;2024-02-14T13:19:37;2.33;;;0.93;;
67997;SDS011;54773;53.388;-1.504;2024-02-14T13:22:22;4.07;;;1.20;;
67997;SDS011;54773;53.388;-1.504;2024-02-14T13:25:06;2.67;;;1.10;;
67997;SDS011;54773;53.388;-1.504;2024-02-14T13:27:51;2.92;;;1.20;;
67997;SDS011;54773;53.388;-1.504;2024-02-14T13:30:35;3.25;;;1.08;;
67997;SDS011;54773;53.388;-1.504;2024-02-14T13:33:19;4.03;;;1.13;;
67997;SDS011;54773;53.388;-1.504;2024-02-14T13:36:03;5.83;;;1.67;;
67997;SDS011;54773;53.388;-1.504;2024-02-14T13:38:47;2.50;;;1.02;;
67997;SDS011;54773;53.388;-1.504;2024-02-14T13:41:31;4.60;;;1.03;;
67997;SDS011;54773;53.388;-1.504;2024-02-14T13:44:15;3.70;;;1.10;;
67997;SDS011;54773;53.388;-1.504;2024-02-14T13:46:59;4.50;;;1.15;;
67997;SDS011;54773;53.388;-1.504;2024-02-14T13:49:44;4.03;;;1.00;;
67997;SDS011;54773;53.388;-1.504;2024-02-14T13:52:28;4.80;;;1.13;;
67997;SDS011;54773;53.388;-1.504;2024-02-14T13:55:12;5.40;;;1.60;;
67997;SDS011;54773;53.388;-1.504;2024-02-14T13:57:56;4.43;;;1.10;;
67997;SDS011;54773;53.388;-1.504;2024-02-14T14:00:40;5.80;;;1.50;;
67997;SDS011;54773;53.388;-1.504;2024-02-14T14:03:24;8.90;;;1.30;;
67997;SDS011;54773;53.388;-1.504;2024-02-14T14:06:08;5.43;;;1.30;;
67997;SDS011;54773;53.388;-1.504;2024-02-14T14:08:53;6.78;;;1.40;;
67997;SDS011;54773;53.388;-1.504;2024-02-14T14:11:38;6.13;;;1.50;;
67997;SDS011;54773;53.388;-1.504;2024-02-14T14:14:22;6.63;;;1.60;;
67997;SDS011;54773;53.388;-1.504;2024-02-14T14:17:10;3.67;;;1.20;;
67997;SDS011;54773;53.388;-1.504;2024-02-14T14:19:54;3.88;;;1.30;;
67997;SDS011;54773;53.388;-1.504;2024-02-14T14:22:38;8.02;;;1.58;;
67997;SDS011;54773;53.388;-1.504;2024-02-14T14:25:22;7.85;;;1.80;;
67997;SDS011;54773;53.388;-1.504;2024-02-14T14:28:06;10.93;;;1.93;;
67997;SDS011;54773;53.388;-1.504;2024-02-14T14:30:50;8.15;;;1.90;;
67997;SDS011;54773;53.388;-1.504;2024-02-14T14:33:34;8.18;;;1.67;;
67997;SDS011;54773;53.388;-1.504;2024-02-14T14:36:18;7.77;;;1.60;;
67997;SDS011;54773;53.388;-1.504;2024-02-14T14:39:03;5.72;;;1.63;;
67997;SDS011;54773;53.388;-1.504;2024-02-14T14:41:47;7.88;;;1.65;;
67997;SDS011;54773;53.388;-1.504;2024-02-14T14:44:31;7.03;;;1.43;;
67997;SDS011;54773;53.388;-1.504;2024-02-14T14:47:15;4.60;;;1.40;;
67997;SDS011;54773;53.388;-1.504;2024-02-14T14:50:00;6.40;;;1.90;;
67997;SDS011;54773;53.388;-1.504;2024-02-14T14:52:43;8.63;;;1.83;;
67997;SDS011;54773;53.388;-1.504;2024-02-14T14:55:39;7.40;;;1.95;;
67997;SDS011;54773;53.388;-1.504;2024-02-14T14:58:33;9.13;;;1.40;;
67997;SDS011;54773;53.388;-1.504;2024-02-14T15:01:19;11.02;;;1.98;;
67997;SDS011;54773;53.388;-1.504;2024-02-14T15:04:03;10.07;;;1.80;;
67997;SDS011;54773;53.388;-1.504;2024-02-14T15:06:48;9.63;;;2.00;;
67997;SDS011;54773;53.388;-1.504;2024-02-14T15:09:34;6.88;;;1.67;;
67997;SDS011;54773;53.388;-1.504;2024-02-14T15:12:18;12.40;;;2.30;;
67997;SDS011;54773;53.388;-1.504;2024-02-14T15:15:02;7.72;;;1.60;;
67997;SDS011;54773;53.388;-1.504;2024-02-14T15:17:47;6.68;;;1.55;;
67997;SDS011;54773;53.388;-1.504;2024-02-14T15:20:31;8.32;;;1.75;;
67997;SDS011;54773;53.388;-1.504;2024-02-14T15:23:16;8.90;;;1.50;;
67997;SDS011;54773;53.388;-1.504;2024-02-14T15:26:00;9.10;;;1.55;;
67997;SDS011;54773;53.388;-1.504;2024-02-14T15:28:47;6.43;;;1.40;;
67997;SDS011;54773;53.388;-1.504;2024-02-14T15:31:39;8.00;;;1.95;;
67997;SDS011;54773;53.388;-1.504;2024-02-14T15:34:42;5.05;;;1.48;;
67997;SDS011;54773;53.388;-1.504;2024-02-14T15:37:26;7.85;;;1.70;;
67997;SDS011;54773;53.388;-1.504;2024-02-14T15:40:11;6.45;;;1.70;;
67997;SDS011;54773;53.388;-1.504;2024-02-14T15:45:40;6.00;;;1.30;;
67997;SDS011;54773;53.388;-1.504;2024-02-14T15:48:24;7.93;;;1.65;;
67997;SDS011;54773;53.388;-1.504;2024-02-14T15:51:12;5.90;;;1.50;;
67997;SDS011;54773;53.388;-1.504;2024-02-14T15:53:59;8.38;;;1.50;;
67997;SDS011;54773;53.388;-1.504;2024-02-14T15:56:43;6.57;;;1.17;;
67997;SDS011;54773;53.388;-1.504;2024-02-14T15:59:27;7.03;;;1.30;;
67997;SDS011;54773;53.388;-1.504;2024-02-14T16:02:12;7.32;;;1.42;;
67997;SDS011;54773;53.388;-1.504;2024-02-14T16:04:56;5.00;;;1.38;;
67997;SDS011;54773;53.388;-1.504;2024-02-14T16:07:39;5.67;;;1.27;;
67997;SDS011;54773;53.388;-1.504;2024-02-14T16:10:24;6.32;;;1.65;;
67997;SDS011;54773;53.388;-1.504;2024-02-14T16:13:08;7.05;;;1.65;;
67997;SDS011;54773;53.388;-1.504;2024-02-14T16:15:52;8.63;;;1.88;;